Time;durP1;ratioP1;P1;durP2;ratioP2;P2;SDS_P1;SDS_P2;PMS_P1;PMS_P2;Temp;Humidity;BMP_temperature;BMP_pressure;BME280_temperature;BME280_humidity;BME280_pressure;Samples;Min_cycle;Max_cycle;Signal;HPM_P1;HPM_P2
2022/04/19 00:02:29;;;;;;;2.90;1.65;;;;;;;15.09;35.22;99685.47;2365197;83;25663;-80
2022/04/19 00:05:45;;;;;;;1.98;1.60;;;;;;;15.06;35.29;99680.23;2338903;83;25666;-79
2022/04/19 00:09:06;;;;;;;3.45;1.90;;;;;;;15.04;35.31;99678.04;2376282;83;25679;-78
2022/04/19 00:12:27;;;;;;;2.40;1.80;;;;;;;15.02;35.35;99675.88;2354557;83;31036;-77
2022/04/19 00:15:50;;;;;;;7.00;1.98;;;;;;;14.79;35.35;99652.83;2378788;83;25971;-75
2022/04/19 00:19:15;;;;;;;6.17;2.12;;;;;;;14.79;35.35;99652.83;2354557;83;25724;-77
2022/04/19 00:22:37;;;;;;;2.87;2.05;;;;;;;14.74;35.67;99644.09;2354183;83;25699;-73
2022/04/19 00:26:05;;;;;;;3.05;2.27;;;;;;;14.83;35.75;99667.23;2399363;80;25697;-74
2022/04/19 00:29:41;;;;;;;3.50;2.90;;;;;;;14.82;35.87;99672.50;2461293;80;25665;-76
2022/04/19 00:33:21;;;;;;;4.40;2.77;;;;;;;14.73;36.24;99663.35;2438759;80;25895;-73
2022/04/19 00:36:40;;;;;;;3.35;2.75;;;;;;;14.73;36.24;99663.35;2471051;78;25722;-76
2022/04/19 00:40:13;;;;;;;3.22;2.30;;;;;;;14.66;36.31;99665.57;2521607;78;25563;-78
2022/04/19 00:43:48;;;;;;;5.95;2.33;;;;;;;14.58;36.38;99670.86;2523113;78;25681;-73
2022/04/19 00:47:15;;;;;;;3.65;2.37;;;;;;;14.51;36.61;99667.80;2520949;78;25563;-77
2022/04/19 00:50:36;;;;;;;3.45;2.35;;;;;;;14.46;36.77;99670.42;2495378;78;25630;-77
2022/04/19 00:54:03;;;;;;;5.50;2.52;;;;;;;14.36;37.02;99672.64;2493939;78;25656;-78
2022/04/19 00:57:36;;;;;;;6.27;3.10;;;;;;;14.28;37.18;99663.50;2363771;83;25826;-77
2022/04/19 01:01:01;;;;;;;4.75;2.05;;;;;;;14.13;37.51;99654.34;2368307;83;25580;-78
2022/04/19 01:04:27;;;;;;;2.83;1.80;;;;;;;14.13;37.51;99654.34;2367898;83;25727;-77
2022/04/19 01:07:59;;;;;;;2.60;1.72;;;;;;;14.04;37.90;99653.95;2356231;82;25807;-75
2022/04/19 01:15:11;;;;;;;6.22;1.90;;;;;;;13.77;38.40;99631.29;2338389;84;26081;-76
2022/04/19 01:18:51;;;;;;;2.77;1.57;;;;;;;13.84;38.55;99650.49;2341664;84;25742;-76
2022/04/19 01:22:29;;;;;;;2.70;1.40;;;;;;;13.79;38.73;99650.92;2341864;83;25638;-74
2022/04/19 01:25:52;;;;;;;2.83;1.35;;;;;;;13.73;38.95;99644.38;2262665;87;25812;-77
2022/04/19 01:29:36;;;;;;;3.65;1.55;;;;;;;13.70;39.15;99643.92;2313202;83;25730;-76
2022/04/19 01:32:56;;;;;;;3.08;1.77;;;;;;;13.64;39.31;99643.52;2361282;83;25745;-76
2022/04/19 01:36:23;;;;;;;4.42;2.30;;;;;;;13.61;39.44;99639.59;2361614;83;25754;-75
2022/04/19 01:43:41;;;;;;;3.60;2.30;;;;;;;13.55;39.69;99636.09;2358245;83;25655;-78
2022/04/19 01:47:18;;;;;;;2.92;1.87;;;;;;;13.50;39.79;99626.95;2338088;83;25270;-77
2022/04/19 01:50:49;;;;;;;6.05;2.17;;;;;;;13.47;39.95;99629.56;2357036;83;25712;-78
2022/04/19 01:54:11;;;;;;;2.62;1.85;;;;;;;13.44;40.01;99630.88;2309403;83;26055;-75
2022/04/19 01:57:48;;;;;;;5.60;2.62;;;;;;;13.40;40.08;99626.07;2336834;83;25791;-78
2022/04/19 02:01:21;;;;;;;3.83;2.45;;;;;;;13.36;40.16;99627.36;2256787;86;26293;-77
2022/04/19 02:04:47;;;;;;;2.70;2.20;;;;;;;13.33;40.22;99631.28;2284777;86;25855;-75
2022/04/19 02:08:08;;;;;;;2.80;2.30;;;;;;;13.29;40.31;99632.16;2268379;85;25468;-74
2022/04/19 02:11:37;;;;;;;2.22;2.02;;;;;;;13.26;40.38;99629.54;2240063;87;25802;-73
2022/04/19 02:15:07;;;;;;;2.58;2.05;;;;;;;13.22;40.47;99628.19;2293528;84;25753;-79
2022/04/19 02:18:28;;;;;;;2.83;2.58;;;;;;;13.18;40.50;99629.51;2342614;82;25918;-75
2022/04/19 02:22:10;;;;;;;5.75;2.62;;;;;;;13.13;40.56;99628.65;2346307;84;30760;-76
2022/04/19 02:25:34;;;;;;;3.05;1.82;;;;;;;13.09;40.65;99629.05;2324755;84;25751;-75
2022/04/19 02:29:11;;;;;;;5.37;1.87;;;;;;;13.07;40.69;99621.66;2334738;84;25786;-75
2022/04/19 02:32:36;;;;;;;3.02;1.85;;;;;;;13.03;40.81;99625.14;2334470;84;25793;-77
2022/04/19 02:36:07;;;;;;;2.85;2.20;;;;;;;13.02;40.85;99623.81;2332454;83;25640;-76
2022/04/19 02:39:36;;;;;;;3.08;2.60;;;;;;;13.00;40.84;99620.77;2335142;84;25582;-77
2022/04/19 02:43:19;;;;;;;2.12;1.60;;;;;;;12.96;41.00;99620.34;2333194;84;25976;-78
2022/04/19 02:46:41;;;;;;;5.53;2.08;;;;;;;12.94;41.15;99616.83;2335379;84;25660;-74
2022/04/19 02:50:08;;;;;;;2.65;1.90;;;;;;;12.91;41.24;99616.82;2335797;83;25720;-76
2022/04/19 02:53:36;;;;;;;3.45;1.82;;;;;;;12.89;41.31;99617.27;2299966;84;25769;-74
2022/04/19 02:56:59;;;;;;;2.55;2.05;;;;;;;12.87;41.39;99617.69;2331835;81;30873;-74
2022/04/19 03:00:26;;;;;;;4.42;2.00;;;;;;;12.87;41.47;99612.45;2407296;81;25693;-77
2022/04/19 03:03:58;;;;;;;3.20;1.90;;;;;;;12.85;41.58;99618.55;2417417;81;25819;-76
2022/04/19 03:07:19;;;;;;;2.65;2.10;;;;;;;12.82;41.54;99615.92;2419358;80;25779;-75
2022/04/19 03:10:46;;;;;;;2.77;1.80;;;;;;;12.80;41.59;99618.99;2437172;80;25606;-74
2022/04/19 03:14:10;;;;;;;1.42;1.32;;;;;;;12.78;41.61;99615.05;2438520;80;25635;-74
2022/04/19 03:17:34;;;;;;;1.70;1.30;;;;;;;12.73;41.63;99620.28;2460360;80;25660;-74
2022/04/19 03:21:17;;;;;;;2.00;1.50;;;;;;;12.68;41.76;99625.05;2460317;80;25640;-78
2022/04/19 03:28:45;;;;;;;3.15;1.20;;;;;;;12.61;41.89;99626.77;2458064;80;25671;-78
2022/04/19 03:32:23;;;;;;;1.90;1.50;;;;;;;12.57;42.04;99623.71;2460390;80;25702;-75
2022/04/19 03:36:17;;;;;;;1.47;1.15;;;;;;;12.55;42.15;99625.44;2433628;80;25707;-76
2022/04/19 03:39:33;;;;;;;2.50;1.42;;;;;;;12.52;42.17;99618.48;2450437;80;25536;-76
2022/04/19 03:43:08;;;;;;;2.95;1.30;;;;;;;12.52;42.25;99622.40;2436245;80;26204;-76
2022/04/19 03:50:28;;;;;;;2.25;1.22;;;;;;;12.45;42.32;99635.02;2456649;80;25585;-76
2022/04/19 03:53:52;;;;;;;1.80;1.00;;;;;;;12.44;42.39;99637.60;2456427;80;25628;-76
2022/04/19 03:57:27;;;;;;;1.77;0.90;;;;;;;12.42;42.52;99638.91;2459341;80;25680;-75
2022/04/19 04:00:51;;;;;;;1.02;0.90;;;;;;;12.39;42.63;99632.36;2308254;84;25973;-78
2022/04/19 04:04:12;;;;;;;1.87;1.00;;;;;;;12.40;42.64;99631.93;2307911;84;25544;-77
2022/04/19 04:07:37;;;;;;;1.10;1.00;;;;;;;12.39;42.70;99641.52;2308495;84;31075;-76
2022/04/19 04:11:14;;;;;;;1.32;1.15;;;;;;;12.39;42.73;99641.95;2346791;84;25786;-75
2022/04/19 04:14:43;;;;;;;3.17;1.60;;;;;;;12.37;42.65;99647.59;2349892;84;25599;-74
2022/04/19 04:18:12;;;;;;;1.45;1.30;;;;;;;12.33;42.83;99643.23;2350494;84;25689;-76
2022/04/19 04:21:36;;;;;;;1.30;1.20;;;;;;;12.33;42.82;99657.16;2350624;84;25658;-74
2022/04/19 04:25:11;;;;;;;2.40;1.52;;;;;;;12.35;42.83;99659.77;2350633;84;25761;-76
2022/04/19 04:28:32;;;;;;;1.55;1.45;;;;;;;12.34;42.91;99661.52;2325325;82;25785;-76
2022/04/19 04:31:59;;;;;;;3.72;1.65;;;;;;;12.35;42.89;99670.22;2297653;84;25752;-73
2022/04/19 04:35:23;;;;;;;1.70;1.57;;;;;;;12.32;42.94;99675.03;2350159;84;25730;-77
2022/04/19 04:38:56;;;;;;;1.60;1.32;;;;;;;12.27;42.97;99683.27;2326515;84;25730;-77
2022/04/19 04:42:21;;;;;;;4.50;1.70;;;;;;;12.20;43.05;99686.70;2349265;84;25802;-74
2022/04/19 04:45:42;;;;;;;3.67;1.22;;;;;;;12.16;43.00;99686.26;2326661;83;25242;-78
2022/04/19 04:52:42;;;;;;;1.87;1.57;;;;;;;12.08;43.07;99690.10;2406381;81;25705;-77
2022/04/19 04:56:04;;;;;;;3.35;1.47;;;;;;;12.03;43.17;99691.83;2405928;81;25661;-75
2022/04/19 04:59:32;;;;;;;3.00;1.67;;;;;;;11.98;43.19;99697.44;2406632;82;25813;-75
2022/04/19 05:02:55;;;;;;;2.33;1.65;;;;;;;11.95;43.22;99710.51;2381439;82;25698;-75
2022/04/19 05:06:41;;;;;;;1.37;1.22;;;;;;;11.93;43.35;99707.87;2419770;79;25774;-74
2022/04/19 05:10:14;;;;;;;;;;;;;;;;;;;;;
2022/04/19 05:13:43;;;;;;;2.62;1.05;;;;;;;11.94;43.34;99704.81;2474927;79;25626;-76
2022/04/19 05:17:06;;;;;;;3.00;1.60;;;;;;;11.95;43.41;99707.45;2467636;80;25688;-76
2022/04/19 05:20:31;;;;;;;1.20;1.10;;;;;;;11.95;43.36;99707.89;2439630;80;25752;-74
2022/04/19 05:23:55;;;;;;;2.22;1.35;;;;;;;11.93;43.41;99707.87;2460277;80;25751;-76
2022/04/19 05:27:31;;;;;;;1.00;0.90;;;;;;;11.91;43.47;99711.32;2460625;80;25738;-75
2022/04/19 05:31:06;;;;;;;1.10;1.00;;;;;;;11.89;43.44;99714.38;2415243;80;26009;-76
2022/04/19 05:34:32;;;;;;;3.42;1.07;;;;;;;11.89;43.51;99728.30;2454934;80;25639;-77
2022/04/19 05:38:03;;;;;;;1.30;1.12;;;;;;;11.90;43.47;99727.87;2461147;80;25569;-77
2022/04/19 05:41:40;;;;;;;;;;;;;;;;;;;;;
2022/04/19 05:44:53;;;;;;;1.12;0.90;;;;;;;11.92;43.31;99739.22;2456248;80;25577;-75
2022/04/19 05:48:22;;;;;;;1.22;1.10;;;;;;;11.89;43.26;99737.45;2439206;80;25627;-73
2022/04/19 05:51:45;;;;;;;1.12;1.02;;;;;;;11.90;43.27;99742.23;2438753;80;25637;-75
2022/04/19 05:55:09;;;;;;;1.22;1.00;;;;;;;11.88;43.22;99750.07;2461026;80;25593;-75
2022/04/19 05:58:32;;;;;;;1.20;1.10;;;;;;;11.88;43.32;99754.39;2439064;80;25683;-77
2022/04/19 06:05:55;;;;;;;1.22;1.12;;;;;;;11.86;43.36;99753.09;2440911;80;25662;-74
2022/04/19 06:09:21;;;;;;;2.85;1.50;;;;;;;11.85;43.34;99760.48;2397140;80;25794;-74
2022/04/19 06:13:03;;;;;;;1.40;1.30;;;;;;;11.85;43.27;99768.77;2459645;79;25684;-77
2022/04/19 06:16:25;;;;;;;1.15;1.05;;;;;;;11.93;43.36;99769.25;2459632;80;25755;-76
2022/04/19 06:19:59;;;;;;;1.17;1.07;;;;;;;12.11;43.44;99776.34;2443211;80;25613;-76
2022/04/19 06:23:23;;;;;;;0.95;0.82;;;;;;;12.28;43.44;99782.60;2380968;81;25732;-76
2022/04/19 06:26:57;;;;;;;1.07;1.02;;;;;;;12.42;43.53;99785.71;2397907;81;25718;-75
2022/04/19 06:30:24;;;;;;;0.68;0.68;;;;;;;12.54;43.83;99784.49;2423693;81;25645;-75
2022/04/19 06:33:45;;;;;;;1.17;0.90;;;;;;;12.69;44.37;99782.38;2419467;80;25683;-75
2022/04/19 06:37:06;;;;;;;1.00;0.85;;;;;;;12.82;44.51;99793.35;2419422;81;25711;-75
2022/04/19 06:40:30;;;;;;;1.02;0.72;;;;;;;12.90;44.60;99782.52;2419139;81;26294;-75
2022/04/19 06:43:59;;;;;;;1.02;0.80;;;;;;;12.98;44.71;99791.69;2419298;81;25672;-76
2022/04/19 06:47:24;;;;;;;1.00;0.82;;;;;;;13.05;44.80;99800.45;2418890;81;25160;-75
2022/04/19 06:50:48;;;;;;;1.22;0.70;;;;;;;13.11;44.90;99802.66;2398795;81;26273;-75
2022/04/19 06:54:13;;;;;;;1.02;0.80;;;;;;;13.21;45.09;99800.52;2419661;81;25570;-76
2022/04/19 06:57:44;;;;;;;1.00;0.60;;;;;;;13.31;45.18;99813.23;2418676;81;26211;-75
2022/04/19 07:01:06;;;;;;;0.72;0.65;;;;;;;13.41;45.34;99820.25;2398694;81;26362;-75
2022/04/19 07:04:30;;;;;;;3.12;0.68;;;;;;;13.56;45.71;99825.95;2398410;81;25711;-75
2022/04/19 07:07:59;;;;;;;1.00;0.70;;;;;;;13.68;45.72;99828.61;2418734;81;25168;-76
2022/04/19 07:11:29;;;;;;;5.97;0.90;;;;;;;13.78;45.55;99833.87;2403733;80;25912;-75
2022/04/19 07:15:08;;;;;;;0.95;0.85;;;;;;;13.84;45.35;99833.89;2416823;78;25782;-81
2022/04/19 07:18:36;;;;;;;3.35;0.78;;;;;;;13.92;45.19;99840.87;2499234;78;26374;-78
2022/04/19 07:29:34;;;;;;;1.17;1.07;;;;;;;13.94;43.57;99840.89;2329899;83;25738;-79
2022/04/19 07:33:08;;;;;;;1.15;0.90;;;;;;;13.84;42.86;99841.31;2280715;86;26429;-76
2022/04/19 07:36:31;;;;;;;2.75;1.07;;;;;;;13.77;42.28;99842.58;2128016;91;26410;-78
2022/04/19 07:39:54;;;;;;;1.37;1.02;;;;;;;13.75;41.88;99848.27;2129737;91;25769;-76
2022/04/19 07:43:17;;;;;;;2.27;0.90;;;;;;;13.68;41.56;99856.55;2139063;91;25791;-75
2022/04/19 07:46:38;;;;;;;1.20;1.10;;;;;;;13.62;41.45;99860.02;2141524;91;26520;-75
2022/04/19 07:50:04;;;;;;;1.70;1.17;;;;;;;13.61;41.34;99853.05;2128416;92;25913;-75
2022/04/19 07:53:24;;;;;;;1.45;1.10;;;;;;;13.61;41.13;99853.05;2116643;92;25897;-75
2022/04/19 07:56:47;;;;;;;1.10;1.00;;;;;;;13.62;41.06;99862.64;2108673;92;25789;-75
2022/04/19 08:00:14;;;;;;;1.20;1.10;;;;;;;13.63;41.00;99867.44;2128551;90;25776;-76
2022/04/19 08:03:48;;;;;;;1.67;1.25;;;;;;;13.65;40.88;99873.56;2139901;88;25828;-76
2022/04/19 08:07:16;;;;;;;1.62;1.20;;;;;;;13.67;40.71;99873.16;2238013;86;25804;-77
2022/04/19 08:10:37;;;;;;;1.98;1.00;;;;;;;13.65;40.66;99879.67;2196570;88;25855;-77
2022/04/19 08:14:00;;;;;;;1.50;1.40;;;;;;;13.63;40.51;99880.53;2214447;88;26379;-75
2022/04/19 08:17:25;;;;;;;1.30;1.20;;;;;;;13.61;40.42;99884.91;2233077;87;25749;-74
2022/04/19 08:20:46;;;;;;;1.12;0.80;;;;;;;13.56;40.38;99889.25;2233060;88;25882;-74
2022/04/19 08:24:10;;;;;;;4.87;1.00;;;;;;;13.57;41.06;99894.51;2232913;88;25773;-77
2022/04/19 08:27:44;;;;;;;5.55;0.70;;;;;;;14.04;41.15;99896.79;2232785;88;25740;-78
2022/04/19 08:31:07;;;;;;;2.05;0.98;;;;;;;14.12;41.49;99897.25;2248361;82;26419;-79
2022/04/19 08:34:28;;;;;;;7.75;1.05;;;;;;;14.22;41.81;99882.85;2470294;78;25639;-78
2022/04/19 08:38:00;;;;;;;1.35;0.85;;;;;;;14.32;42.04;99900.34;2452984;79;25399;-78
2022/04/19 08:41:38;;;;;;;2.20;0.62;;;;;;;14.41;42.12;99909.53;2486883;78;25560;-78
2022/04/19 08:45:35;;;;;;;3.33;1.10;;;;;;;14.45;42.23;99916.52;2490252;78;25585;-78
2022/04/19 08:49:05;;;;;;;1.40;0.93;;;;;;;14.50;42.30;99911.27;2526825;78;25536;-78
2022/04/19 08:52:27;;;;;;;1.35;0.93;;;;;;;14.55;42.44;99916.98;2525431;78;25643;-77
2022/04/19 09:00:06;;;;;;;1.00;0.90;;;;;;;14.59;42.45;99914.80;2525899;78;26173;-78
2022/04/19 09:03:30;;;;;;;3.70;1.00;;;;;;;14.60;43.02;99893.38;2525113;78;25643;-78
2022/04/19 09:07:06;;;;;;;4.75;0.82;;;;;;;14.78;43.23;99919.61;2525209;78;26315;-78
2022/04/19 09:10:31;;;;;;;1.65;0.90;;;;;;;14.78;43.23;99919.61;2520535;77;25620;-78
2022/04/19 09:14:06;;;;;;;2.17;1.02;;;;;;;14.87;43.20;99922.64;2518396;78;25668;-77
2022/04/19 09:17:40;;;;;;;8.23;0.82;;;;;;;14.96;43.45;99925.27;2383505;82;25696;-77
2022/04/19 09:21:14;;;;;;;13.43;2.67;;;;;;;15.05;43.37;99926.98;2383504;83;25851;-78
2022/04/19 09:24:35;;;;;;;3.05;1.00;;;;;;;15.11;43.52;99925.22;2353004;83;26696;-77
2022/04/19 09:27:57;;;;;;;6.78;1.25;;;;;;;15.16;43.60;99932.23;2360069;83;25649;-77
2022/04/19 09:31:30;;;;;;;8.13;1.75;;;;;;;15.02;43.94;99902.08;2383879;83;25799;-80
2022/04/19 09:34:53;;;;;;;8.15;2.42;;;;;;;15.23;44.11;99932.66;2382197;82;26502;-78
2022/04/19 09:38:40;;;;;;;18.77;4.30;;;;;;;15.30;44.22;99935.69;2383823;83;25827;-77
2022/04/19 09:42:15;;;;;;;10.55;4.45;;;;;;;15.35;44.29;99935.22;2383845;82;25689;-78
2022/04/19 09:45:58;;;;;;;6.03;5.10;;;;;;;15.39;44.45;99940.03;2382864;83;25707;-79
2022/04/19 09:49:51;;;;;;;9.78;4.20;;;;;;;15.38;44.44;99948.35;2381052;83;26106;-78
2022/04/19 09:53:31;;;;;;;25.00;5.67;;;;;;;15.44;44.58;99948.78;2383133;82;25900;-78
2022/04/19 09:57:02;;;;;;;14.55;5.15;;;;;;;15.53;44.87;99951.39;2383401;82;25668;-78
2022/04/19 10:00:22;;;;;;;7.03;4.58;;;;;;;15.61;45.34;99961.86;2382353;82;25721;-79
2022/04/19 10:12:01;;;;;;;6.85;3.52;;;;;;;16.34;46.15;99956.71;2366836;81;26377;-80
2022/04/19 10:15:39;;;;;;;6.58;3.17;;;;;;;16.73;45.69;99964.28;2232707;86;25662;-81
2022/04/19 10:19:09;;;;;;;8.68;4.97;;;;;;;16.77;45.84;99967.80;2136361;90;33072;-76
2022/04/19 10:22:33;;;;;;;7.75;3.10;;;;;;;16.78;45.76;99963.43;2106763;93;26431;-77
2022/04/19 10:25:59;;;;;;;4.87;3.25;;;;;;;16.78;45.56;99964.75;2106649;92;25923;-78
2022/04/19 10:29:39;;;;;;;3.97;2.83;;;;;;;16.80;45.58;99965.14;2106694;92;25795;-77
2022/04/19 10:32:56;;;;;;;5.75;2.60;;;;;;;16.83;45.57;99967.75;2105498;92;25801;-76
2022/04/19 10:38:42;;;;;;;2.12;1.92;;;;;;;17.08;45.61;99967.10;2537236;77;30851;-77
2022/04/19 10:42:32;;;;;;;2.92;1.77;;;;;;;17.15;45.41;99969.23;2474216;78;25772;-78
2022/04/19 10:46:01;;;;;;;3.02;1.60;;;;;;;17.33;44.97;99975.61;2473616;78;25734;-78
2022/04/19 10:49:27;;;;;;;2.12;1.42;;;;;;;17.46;44.48;99964.51;2355758;81;26459;-78
2022/04/19 10:53:05;;;;;;;1.62;1.30;;;;;;;17.57;43.35;99960.42;2361972;83;25696;-77
2022/04/19 11:00:34;;;;;;;2.02;1.40;;;;;;;17.42;40.20;99961.03;2209696;88;25814;-75
2022/04/19 11:04:22;;;;;;;;;;;;;;;;;;;;;
2022/04/19 11:07:47;;;;;;;4.03;1.15;;;;;;;17.52;40.56;99973.67;2225293;87;25813;-76
2022/04/19 11:15:01;;;;;;;2.05;1.10;;;;;;;17.75;41.95;99974.72;2187430;90;25747;-79
2022/04/19 11:18:43;;;;;;;2.40;0.93;;;;;;;17.85;42.27;99975.48;2165605;90;25709;-79
2022/04/19 11:22:10;;;;;;;5.30;1.55;;;;;;;17.92;42.47;99978.47;2158315;90;26116;-78
2022/04/19 11:25:43;;;;;;;4.17;1.10;;;;;;;17.97;42.57;99971.83;2195561;86;26021;-79
2022/04/19 11:29:17;;;;;;;2.10;0.80;;;;;;;17.99;42.63;99970.93;2293776;84;25777;-78
2022/04/19 11:32:43;;;;;;;1.05;0.90;;;;;;;18.01;42.77;99970.44;2249665;86;25767;-79
2022/04/19 11:36:16;;;;;;;2.00;1.10;;;;;;;18.01;42.66;99969.13;2231826;88;25803;-80
2022/04/19 11:47:26;;;;;;;1.00;0.90;;;;;;;17.96;42.16;99968.78;2272736;84;25802;-81
2022/04/19 11:50:44;;;;;;;1.67;0.90;;;;;;;18.00;41.98;99974.44;2240934;86;25819;-80
2022/04/19 11:54:06;;;;;;;1.40;1.30;;;;;;;18.07;41.88;99969.50;2226252;87;25849;-78
2022/04/19 11:57:39;;;;;;;1.77;1.07;;;;;;;18.06;40.62;99966.45;2312854;84;25253;-78
2022/04/19 12:01:12;;;;;;;1.27;1.17;;;;;;;17.92;39.94;99970.14;2155448;89;25819;-79
2022/04/19 12:04:35;;;;;;;1.40;1.30;;;;;;;17.99;39.50;99964.75;2153935;90;25921;-78
2022/04/19 12:08:10;;;;;;;1.82;1.65;;;;;;;17.87;38.16;99961.39;2188341;89;25896;-79
2022/04/19 12:11:38;;;;;;;1.65;1.55;;;;;;;17.76;37.48;99963.73;2225594;87;25729;-80
2022/04/19 12:15:10;;;;;;;1.85;1.72;;;;;;;17.61;36.93;99960.36;2240899;87;25993;-79
2022/04/19 12:18:35;;;;;;;2.40;1.70;;;;;;;17.49;36.41;99951.75;2234460;86;25964;-78
2022/04/19 12:22:23;;;;;;;2.87;1.75;;;;;;;17.34;36.05;99956.27;2219760;87;25798;-79
2022/04/19 12:26:20;;;;;;;1.30;1.17;;;;;;;17.21;36.03;99963.46;2215942;87;25783;-78
2022/04/19 12:30:26;;;;;;;;;;;;;;;;;;;;;
2022/04/19 12:33:55;;;;;;;1.30;0.80;;;;;;;17.53;37.90;99958.72;2236334;88;26591;-78
2022/04/19 12:37:31;;;;;;;1.37;1.07;;;;;;;17.71;38.19;99949.27;2247251;86;25882;-78
2022/04/19 12:40:58;;;;;;;0.85;0.82;;;;;;;17.89;39.10;99949.53;2245584;87;25877;-78
2022/04/19 12:44:44;;;;;;;1.98;1.00;;;;;;;18.06;39.15;99950.63;2235886;88;26435;-79
2022/04/19 12:48:10;;;;;;;1.10;1.00;;;;;;;18.20;39.46;99956.56;2175240;89;25744;-79
2022/04/19 12:51:37;;;;;;;1.15;1.02;;;;;;;18.29;39.42;99947.20;2175065;90;25746;-74
2022/04/19 12:55:04;;;;;;;0.88;0.80;;;;;;;18.36;38.88;99952.81;2148007;90;25384;-75
2022/04/19 12:58:33;;;;;;;;;;;;;;;18.27;38.19;99950.30;2244931;87;25735;-75
2022/04/19 13:01:54;;;;;;;1.00;0.80;;;;;;;18.42;38.47;99951.83;2268067;86;25676;-75
2022/04/19 13:05:15;;;;;;;2.05;1.00;;;;;;;18.66;38.88;99953.20;2271057;86;30946;-74
2022/04/19 13:12:30;;;;;;;1.07;0.95;;;;;;;19.27;37.98;99950.86;2270813;86;25825;-74
2022/04/19 13:15:52;;;;;;;5.90;1.07;;;;;;;19.41;37.59;99953.70;2270969;87;25670;-74
2022/04/19 13:19:13;;;;;;;6.95;0.80;;;;;;;19.54;37.60;99957.81;2249206;87;25877;-75
2022/04/19 13:22:44;;;;;;;3.65;1.15;;;;;;;19.65;37.94;99958.52;2270604;86;25844;-75
2022/04/19 13:26:05;;;;;;;2.15;1.30;;;;;;;19.59;37.40;99957.28;2270871;87;25724;-75
2022/04/19 13:29:25;;;;;;;3.85;1.37;;;;;;;19.34;36.75;99958.23;2270314;86;25854;-77
2022/04/19 13:32:49;;;;;;;3.15;1.45;;;;;;;19.11;36.32;99948.94;2269511;86;30883;-77
2022/04/19 13:36:10;;;;;;;1.77;1.40;;;;;;;18.96;35.79;99948.34;2279041;84;26417;-76
2022/04/19 13:39:32;;;;;;;1.47;1.30;;;;;;;18.78;35.38;99946.89;2424126;81;31401;-75
2022/04/19 13:42:52;;;;;;;1.72;1.30;;;;;;;18.65;35.11;99951.47;2428264;81;25644;-75
2022/04/19 13:46:16;;;;;;;4.22;1.00;;;;;;;18.66;35.32;99950.56;2427678;80;25723;-75
2022/04/19 13:49:37;;;;;;;1.37;1.07;;;;;;;18.82;36.08;99952.54;2428127;81;25931;-75
2022/04/19 13:53:05;;;;;;;1.95;1.05;;;;;;;18.99;36.61;99946.52;2404393;81;25601;-76
2022/04/19 13:56:35;;;;;;;0.93;0.80;;;;;;;19.33;37.11;99946.75;2428067;81;25624;-75
2022/04/19 14:00:07;;;;;;;1.20;0.85;;;;;;;19.73;37.22;99942.03;2400430;80;25660;-76
2022/04/19 14:03:39;;;;;;;4.20;0.80;;;;;;;20.14;37.33;99951.30;2426937;81;25796;-76
2022/04/19 14:07:06;;;;;;;1.15;0.88;;;;;;;20.46;37.31;99944.81;2427700;81;26246;-77
2022/04/19 14:10:30;;;;;;;9.93;1.95;;;;;;;20.64;37.09;99940.87;2427772;81;25608;-77
2022/04/19 14:13:51;;;;;;;4.40;1.17;;;;;;;20.73;37.14;99940.66;2428230;80;26259;-76
2022/04/19 14:17:15;;;;;;;3.45;1.35;;;;;;;20.85;37.29;99943.89;2400525;81;25779;-77
2022/04/19 14:20:44;;;;;;;2.27;1.27;;;;;;;20.91;37.34;99935.79;2428420;79;25635;-76
2022/04/19 14:24:39;;;;;;;6.40;0.88;;;;;;;20.90;37.31;99935.39;2400106;81;26456;-76
2022/04/19 14:27:50;;;;;;;2.02;1.30;;;;;;;20.89;37.10;99937.17;2298202;85;25738;-77
2022/04/19 14:35:24;;;;;;;2.02;0.95;;;;;;;20.85;37.06;99938.13;2300982;85;25859;-77
2022/04/19 14:38:45;;;;;;;4.80;1.17;;;;;;;20.86;36.90;99937.24;2296528;85;25662;-76
2022/04/19 14:42:13;;;;;;;10.00;1.75;;;;;;;20.88;36.63;99935.86;2292127;85;25726;-76
2022/04/19 14:45:42;;;;;;;;;;;;;;;20.88;36.65;99934.55;2297530;86;25805;-77
2022/04/19 14:49:05;;;;;;;0.85;0.70;;;;;;;20.89;36.43;99933.63;2311084;84;25793;-77
2022/04/19 14:52:26;;;;;;;3.72;0.82;;;;;;;20.87;36.35;99944.27;2325034;84;26263;-77
2022/04/19 14:56:01;;;;;;;6.00;0.70;;;;;;;20.85;36.32;99943.43;2295136;86;25853;-79
2022/04/19 14:59:32;;;;;;;2.75;0.80;;;;;;;20.83;35.77;99942.62;2277621;86;25699;-79
2022/04/19 15:03:03;;;;;;;1.27;0.80;;;;;;;20.83;35.58;99946.59;2289487;84;25859;-80
2022/04/19 15:06:34;;;;;;;2.95;0.70;;;;;;;20.81;35.57;99945.75;2298876;86;25296;-80
2022/04/19 15:09:55;;;;;;;2.10;0.70;;;;;;;20.77;35.79;99941.91;2300437;85;25705;-80
2022/04/19 15:13:18;;;;;;;2.27;0.65;;;;;;;20.64;35.99;99947.95;2300356;86;25938;-80
2022/04/19 15:16:39;;;;;;;1.47;0.88;;;;;;;20.51;36.35;99938.97;2300717;85;25713;-80
2022/04/19 15:20:03;;;;;;;0.98;0.62;;;;;;;20.38;36.71;99939.27;2301256;86;25779;-80
2022/04/19 15:23:27;;;;;;;1.00;0.82;;;;;;;20.23;37.02;99933.89;2300265;84;25923;-80
2022/04/19 15:26:50;;;;;;;2.80;0.70;;;;;;;20.10;37.35;99943.88;2300546;86;25629;-81
2022/04/19 15:30:11;;;;;;;4.87;0.70;;;;;;;19.98;37.69;99944.14;2294709;85;25727;-80
2022/04/19 15:33:39;;;;;;;2.15;0.60;;;;;;;19.85;38.00;99946.66;2299446;86;25673;-81
2022/04/19 15:37:03;;;;;;;1.50;0.80;;;;;;;19.73;38.36;99944.67;2298712;85;26545;-80
2022/04/19 15:40:24;;;;;;;2.17;0.60;;;;;;;19.62;38.65;99947.10;2249820;87;26378;-80
2022/04/19 15:43:47;;;;;;;0.88;0.65;;;;;;;19.52;38.93;99950.38;2247822;87;25823;-78
2022/04/19 15:47:08;;;;;;;0.53;0.50;;;;;;;19.42;39.13;99949.69;2249941;86;25751;-80
2022/04/19 15:50:37;;;;;;;0.70;0.50;;;;;;;19.32;39.37;99946.34;2249462;87;25771;-80
2022/04/19 15:54:06;;;;;;;0.90;0.50;;;;;;;19.22;39.57;99945.23;2251245;85;26083;-80
2022/04/19 15:57:32;;;;;;;0.82;0.78;;;;;;;19.11;39.76;99942.80;2314937;85;25691;-79
2022/04/19 16:01:06;;;;;;;4.05;0.53;;;;;;;19.00;40.21;99933.75;2310412;81;25763;-79
2022/04/19 16:04:37;;;;;;;0.57;0.50;;;;;;;18.99;38.78;99931.12;2402813;81;25412;-80
2022/04/19 16:08:07;;;;;;;2.45;0.60;;;;;;;18.95;38.66;99933.40;2385061;81;25714;-81
2022/04/19 16:11:49;;;;;;;0.50;0.50;;;;;;;18.82;38.66;99930.95;2378117;81;26342;-81
2022/04/19 16:15:10;;;;;;;1.62;0.93;;;;;;;18.70;38.83;99925.87;2375237;82;25707;-80
2022/04/19 16:26:50;;;;;;;1.15;0.62;;;;;;;18.37;39.34;99921.56;2396003;81;25774;-81
2022/04/19 16:30:22;;;;;;;2.20;0.72;;;;;;;18.25;39.56;99918.23;2359651;83;25684;-81
2022/04/19 16:33:42;;;;;;;1.32;0.60;;;;;;;18.13;39.72;99915.34;2363330;83;29091;-81
2022/04/19 16:37:06;;;;;;;0.72;0.60;;;;;;;18.04;39.88;99911.51;2363530;83;30996;-82
2022/04/19 16:40:38;;;;;;;1.82;0.70;;;;;;;17.93;40.04;99915.63;2416454;81;25267;-82
2022/04/19 16:44:05;;;;;;;6.80;0.80;;;;;;;17.84;40.22;99913.97;2419028;81;25827;-81
2022/04/19 16:47:25;;;;;;;2.20;0.75;;;;;;;17.76;40.13;99916.27;2416143;81;25885;-81
2022/04/19 16:50:46;;;;;;;0.72;0.45;;;;;;;17.70;40.19;99910.17;2381957;83;30987;-81
2022/04/19 16:54:19;;;;;;;0.85;0.85;;;;;;;17.64;40.23;99912.88;2381757;83;30944;-81
2022/04/19 16:57:39;;;;;;;3.20;0.60;;;;;;;17.56;40.31;99906.84;2383133;82;25844;-81
2022/04/19 17:01:11;;;;;;;1.07;0.68;;;;;;;17.47;40.47;99910.45;2387373;82;30915;-80
2022/04/19 17:04:31;;;;;;;0.85;0.70;;;;;;;17.39;40.59;99910.13;2387051;82;25763;-79
2022/04/19 17:07:57;;;;;;;1.47;0.60;;;;;;;17.29;40.72;99911.13;2387322;82;30960;-78
2022/04/19 17:11:18;;;;;;;0.50;0.50;;;;;;;17.20;40.84;99913.41;2386422;82;25786;-81
2022/04/19 17:18:07;;;;;;;1.70;0.88;;;;;;;17.03;41.11;99910.08;2317265;85;25753;-82
2022/04/19 17:21:32;;;;;;;0.75;0.55;;;;;;;16.94;41.17;99911.94;2299146;85;25818;-80
2022/04/19 17:24:57;;;;;;;0.90;0.75;;;;;;;16.86;41.30;99911.56;2297418;85;25944;-79
2022/04/19 17:28:28;;;;;;;1.00;0.60;;;;;;;16.77;41.42;99908.56;2310714;85;25439;-85
2022/04/19 17:31:48;;;;;;;1.37;0.70;;;;;;;16.69;41.50;99909.92;2310699;85;25812;-79
2022/04/19 17:35:13;;;;;;;2.50;0.93;;;;;;;16.61;41.47;99917.48;2316212;84;31005;-77
2022/04/19 17:38:40;;;;;;;2.65;0.95;;;;;;;16.69;40.47;99913.88;2318802;85;25851;-78
2022/04/19 17:42:01;;;;;;;1.12;0.90;;;;;;;16.62;39.73;99919.21;2326008;83;25749;-77
2022/04/19 17:45:25;;;;;;;1.00;0.80;;;;;;;16.41;39.29;99919.81;2325960;85;25538;-78
2022/04/19 17:48:53;;;;;;;3.72;1.32;;;;;;;16.22;38.96;99911.17;2325776;85;25652;-78